Scharenbrock, Raymond
United StatesManBorn 19331988 – 2008Runner id 21699
Events
54
1988 – 2008
Best pace
10.799
km/h · 1989
Best finish
87th
of 216 · 1988
Distance raced
3,080
km · splits not double-counted
Pace over time
km/h · higher is faster
Pace over time: 54 races from 1988 to 2008, ranging from 1.95 to 12.66 kilometres per hour, where higher is faster. A second, age-graded series is drawn above it; the gap between the two is the age credit.
- Actual pace
- Age-graded pace
Results
| Date | Event | Distance | Result | Pace km/h | Placing |
|---|---|---|---|---|---|
| 1988-06-02 | Ice Age Trail 50 Mile RunUnited States | 50mi | 9:37:32 h | 8.360 | 87/216 |
| 1988-07-30 | Minnesota Voyageur Trail 50 Mile UltraUnited States | 50mi | 12:54:18 h | 6.235 | 40/43 |
| 1989-05-20 | Ice Age Trail 50 Mile RunUnited States | 50mi | 10:39:58 h | 7.544 | 207/270 |
| 1989-12-12 | 50km | 4:37:48 h | 10.799 | 16/37 | |
| 1990-05-19 | Ice Age Trail 50 Mile RunUnited States | 50mi | 10:25:16 h | 7.722 | 135/217 |
| 1990-07-28 | 67km | 11:19:47 h | 5.914 | 1126/1194 | |
| 1991-05-18 | Ice Age Trail 50 Mile RunUnited States | 50mi | 11:01:56 h | 7.294 | 201/257 |
| 1992-05-16 | Ice Age Trail 50 Mile RunUnited States | 50mi | 11:36:45 h | 6.929 | 244/264 |
| 1996-09-14 | 50km | 6:31:04 h | 7.671 | 24/27 | |
| 1997-12-27 | 50km | 7:08:50 h | 6.996 | 13/13 | |
| 1998-03-07 | 50km | 7:56:40 h | 6.294 | 76/88 | |
| 1999-01-23 | 50km | 6:36:43 h | 7.562 | 35/36 | |
| 1999-02-20 | 50km | 9:41:44 h | 5.157 | 74/74 | |
| 2000-03-04 | 50km | 7:38:06 h | 6.549 | 70/73 | |
| 2000-07-15 | 50km | 9:09:11 h | 5.463 | 44/46 | |
| 2000-09-30 | 6h | 45.705 km | 7.618 | 22/22 | |
| 2001-08-11 | 8h | 49.712 km | 6.214 | 105/118 | |
| 2001-10-20 | 50km | 6:50:20 h | 7.311 | 8/13 | |
| 2002-11-17 | 50km | 7:11:13 h | 6.957 | 25/27 | |
| 2003-03-27 | 50km | 11:37:15 h | 4.303 | 57/61 | |
| 2003-07-05 | Finger Lakes Fifties 50 km RunUnited States | 50km | 9:46:04 h | 5.119 | 26/27 |
| 2003-07-19 | 50km | 12:51:30 h | 3.889 | 163/164 | |
| 2003-09-21 | 50km | 10:10:27 h | 4.914 | 42/42 | |
| 2003-12-13 | 50km | 7:46:21 h | 6.433 | 12/16 | |
| 2003-12-31 | 24h | 82.000 km | 3.417 | 34/46 | |
| 2004-09-25 | 24h | 76.765 km | 3.199 | 11/16 | |
| 2004-10-18 | 12h | 67.592 km | 5.633 | 20/48 | |
| 2006-01-15 | 38.5mi | 11:17:32 h | 5.487 | 33/37 | |
| 2006-02-18 | 50km | 9:28:50 h | 5.274 | 35/37 | |
| 2006-02-25 | 50km Silver Comet Ultra RunUnited States | 50km | 7:41:19 h | 6.503 | 43/48 |
| 2006-03-25 | 50km | 9:14:52 h | 5.407 | 81/80 | |
| 2006-05-20 | Watershed Preserve 12 Hr Trail RaceUnited States | 12h | 64.035 km | 5.336 | 16/30 |
| 2006-07-29 | 24h | 50.855 km | 2.119 | 54/61 | |
| 2006-08-12 | 8h | 50.066 km | 6.258 | 155/177 | |
| 2006-08-20 | 8h | 50.745 km | 6.343 | 44/48 | |
| 2006-08-26 | 50km | 7:49:11 h | 6.394 | 27/32 | |
| 2006-09-02 | 12h | 51.821 km | 4.318 | 32/34 | |
| 2007-01-06 | 50km | 7:53:11 h | 6.340 | 115/116 | |
| 2007-02-03 | 50km | 8:30:33 h | 5.876 | 81/82 | |
| 2007-04-21 | 24h | 48.280 km | 2.012 | 31/31 | |
| 2007-06-02 | 12h | 68.636 km | 5.720 | 30/41 | |
| 2007-06-09 | Hawthorn Half Day RunUnited States | 12h | 49.889 km | 4.157 | 27/31 |
| 2007-06-29 | 24 Hours of LaramieUnited States | 24h | 46.670 km | 1.945 | 11/11 |
| 2007-07-28 | 24h | 55.940 km | 2.331 | 64/76 | |
| 2007-09-01 | 12h | 67.407 km | 5.617 | 25/39 | |
| 2007-09-16 | 50km | 11:08:22 h | 4.489 | 47/47 | |
| 2007-11-17 | 12h | 69.604 km | 5.800 | 13/19 | |
| 2007-12-30 | 24h | 51.500 km | 2.146 | 51/52 | |
| 2008-03-08 | 12h | 65.983 km | 5.499 | 23/29 | |
| 2008-04-20 | 50km | 8:41:10 h | 5.756 | 54/56 |
Showing 1–50 of 54